sensor_id;sensor_type;location;lat;lon;timestamp;P1;durP1;ratioP1;P2;durP2;ratioP2
22571;SDS011;11452;53.368;14.658;2022-10-22T00:02:42;30.63;;;16.57;;
22571;SDS011;11452;53.368;14.658;2022-10-22T00:07:48;33.47;;;18.10;;
22571;SDS011;11452;53.368;14.658;2022-10-22T00:12:54;29.93;;;16.53;;
22571;SDS011;11452;53.368;14.658;2022-10-22T00:18:00;34.60;;;17.57;;
22571;SDS011;11452;53.368;14.658;2022-10-22T00:23:05;31.27;;;16.63;;
22571;SDS011;11452;53.368;14.658;2022-10-22T00:28:11;35.73;;;17.60;;
22571;SDS011;11452;53.368;14.658;2022-10-22T00:33:17;34.37;;;17.67;;
22571;SDS011;11452;53.368;14.658;2022-10-22T00:38:23;37.60;;;17.43;;
22571;SDS011;11452;53.368;14.658;2022-10-22T00:43:29;35.13;;;17.07;;
22571;SDS011;11452;53.368;14.658;2022-10-22T00:48:34;32.77;;;17.73;;
22571;SDS011;11452;53.368;14.658;2022-10-22T00:53:41;33.73;;;18.03;;
22571;SDS011;11452;53.368;14.658;2022-10-22T00:58:51;32.63;;;18.97;;
22571;SDS011;11452;53.368;14.658;2022-10-22T01:03:57;33.33;;;17.70;;
22571;SDS011;11452;53.368;14.658;2022-10-22T01:09:15;33.17;;;18.33;;
22571;SDS011;11452;53.368;14.658;2022-10-22T01:20:09;30.97;;;16.77;;
22571;SDS011;11452;53.368;14.658;2022-10-22T01:25:44;27.53;;;16.27;;
22571;SDS011;11452;53.368;14.658;2022-10-22T01:30:43;25.83;;;15.33;;
22571;SDS011;11452;53.368;14.658;2022-10-22T01:35:52;25.27;;;16.53;;
22571;SDS011;11452;53.368;14.658;2022-10-22T01:40:58;22.70;;;15.53;;
22571;SDS011;11452;53.368;14.658;2022-10-22T01:46:05;28.20;;;15.73;;
22571;SDS011;11452;53.368;14.658;2022-10-22T01:51:19;25.67;;;15.27;;
22571;SDS011;11452;53.368;14.658;2022-10-22T02:01:55;22.93;;;15.67;;
22571;SDS011;11452;53.368;14.658;2022-10-22T02:07:03;21.17;;;14.83;;
22571;SDS011;11452;53.368;14.658;2022-10-22T02:12:10;23.90;;;15.50;;
22571;SDS011;11452;53.368;14.658;2022-10-22T02:17:18;25.43;;;16.43;;
22571;SDS011;11452;53.368;14.658;2022-10-22T02:22:25;26.73;;;17.30;;
22571;SDS011;11452;53.368;14.658;2022-10-22T02:27:34;22.37;;;14.40;;
22571;SDS011;11452;53.368;14.658;2022-10-22T02:38:00;25.70;;;16.40;;
22571;SDS011;11452;53.368;14.658;2022-10-22T02:43:07;23.87;;;15.17;;
22571;SDS011;11452;53.368;14.658;2022-10-22T02:48:12;25.00;;;15.60;;
22571;SDS011;11452;53.368;14.658;2022-10-22T02:53:18;24.53;;;15.00;;
22571;SDS011;11452;53.368;14.658;2022-10-22T02:58:24;23.37;;;15.23;;
22571;SDS011;11452;53.368;14.658;2022-10-22T03:03:29;21.50;;;14.10;;
22571;SDS011;11452;53.368;14.658;2022-10-22T03:08:35;22.93;;;14.20;;
22571;SDS011;11452;53.368;14.658;2022-10-22T03:13:40;20.67;;;14.00;;
22571;SDS011;11452;53.368;14.658;2022-10-22T03:18:46;23.20;;;14.73;;
22571;SDS011;11452;53.368;14.658;2022-10-22T03:23:51;21.77;;;14.70;;
22571;SDS011;11452;53.368;14.658;2022-10-22T03:28:58;23.40;;;15.03;;
22571;SDS011;11452;53.368;14.658;2022-10-22T03:34:04;21.77;;;14.83;;
22571;SDS011;11452;53.368;14.658;2022-10-22T03:39:10;22.47;;;14.67;;
22571;SDS011;11452;53.368;14.658;2022-10-22T03:44:18;22.63;;;14.90;;
22571;SDS011;11452;53.368;14.658;2022-10-22T03:49:25;18.23;;;12.53;;
22571;SDS011;11452;53.368;14.658;2022-10-22T03:54:31;19.17;;;12.87;;
22571;SDS011;11452;53.368;14.658;2022-10-22T03:59:37;18.20;;;12.73;;
22571;SDS011;11452;53.368;14.658;2022-10-22T04:04:44;17.03;;;13.03;;
22571;SDS011;11452;53.368;14.658;2022-10-22T04:09:50;16.33;;;12.77;;
22571;SDS011;11452;53.368;14.658;2022-10-22T04:14:55;16.90;;;11.80;;
22571;SDS011;11452;53.368;14.658;2022-10-22T04:20:01;20.53;;;13.47;;
22571;SDS011;11452;53.368;14.658;2022-10-22T04:25:07;19.07;;;12.83;;
22571;SDS011;11452;53.368;14.658;2022-10-22T04:30:13;18.07;;;13.40;;
22571;SDS011;11452;53.368;14.658;2022-10-22T04:35:19;16.03;;;12.23;;
22571;SDS011;11452;53.368;14.658;2022-10-22T04:40:24;18.90;;;12.43;;
22571;SDS011;11452;53.368;14.658;2022-10-22T04:45:31;15.10;;;11.57;;
22571;SDS011;11452;53.368;14.658;2022-10-22T04:50:37;15.70;;;11.10;;
22571;SDS011;11452;53.368;14.658;2022-10-22T04:55:44;15.70;;;10.80;;
22571;SDS011;11452;53.368;14.658;2022-10-22T05:00:49;16.17;;;11.17;;
22571;SDS011;11452;53.368;14.658;2022-10-22T05:05:56;18.20;;;13.23;;
22571;SDS011;11452;53.368;14.658;2022-10-22T05:11:10;19.80;;;11.90;;
22571;SDS011;11452;53.368;14.658;2022-10-22T05:16:18;24.50;;;13.63;;
22571;SDS011;11452;53.368;14.658;2022-10-22T05:21:24;22.67;;;13.77;;
22571;SDS011;11452;53.368;14.658;2022-10-22T05:26:29;30.23;;;16.30;;
22571;SDS011;11452;53.368;14.658;2022-10-22T05:31:35;28.77;;;16.40;;
22571;SDS011;11452;53.368;14.658;2022-10-22T05:36:41;30.23;;;17.97;;
22571;SDS011;11452;53.368;14.658;2022-10-22T05:41:47;31.70;;;16.67;;
22571;SDS011;11452;53.368;14.658;2022-10-22T05:46:52;29.40;;;17.30;;
22571;SDS011;11452;53.368;14.658;2022-10-22T05:51:58;32.10;;;16.87;;
22571;SDS011;11452;53.368;14.658;2022-10-22T05:57:04;28.93;;;16.30;;
22571;SDS011;11452;53.368;14.658;2022-10-22T06:02:09;30.00;;;16.17;;
22571;SDS011;11452;53.368;14.658;2022-10-22T06:07:15;30.73;;;18.40;;
22571;SDS011;11452;53.368;14.658;2022-10-22T06:12:21;33.27;;;18.33;;
22571;SDS011;11452;53.368;14.658;2022-10-22T06:17:26;32.13;;;17.60;;
22571;SDS011;11452;53.368;14.658;2022-10-22T06:22:32;32.03;;;17.97;;
22571;SDS011;11452;53.368;14.658;2022-10-22T06:27:38;34.50;;;18.87;;
22571;SDS011;11452;53.368;14.658;2022-10-22T06:32:43;33.73;;;18.30;;
22571;SDS011;11452;53.368;14.658;2022-10-22T06:37:49;33.83;;;18.77;;
22571;SDS011;11452;53.368;14.658;2022-10-22T06:42:55;35.40;;;18.67;;
22571;SDS011;11452;53.368;14.658;2022-10-22T06:48:02;36.00;;;19.87;;
22571;SDS011;11452;53.368;14.658;2022-10-22T06:53:08;35.90;;;18.87;;
22571;SDS011;11452;53.368;14.658;2022-10-22T06:58:13;33.70;;;19.20;;
22571;SDS011;11452;53.368;14.658;2022-10-22T07:03:19;43.33;;;19.97;;
22571;SDS011;11452;53.368;14.658;2022-10-22T07:08:26;33.83;;;18.57;;
22571;SDS011;11452;53.368;14.658;2022-10-22T07:13:31;31.33;;;16.97;;
22571;SDS011;11452;53.368;14.658;2022-10-22T07:18:38;28.63;;;17.37;;
22571;SDS011;11452;53.368;14.658;2022-10-22T07:23:45;27.70;;;15.37;;
22571;SDS011;11452;53.368;14.658;2022-10-22T07:28:51;29.30;;;17.47;;
22571;SDS011;11452;53.368;14.658;2022-10-22T07:33:56;27.90;;;16.97;;
22571;SDS011;11452;53.368;14.658;2022-10-22T07:39:02;25.93;;;16.37;;
22571;SDS011;11452;53.368;14.658;2022-10-22T07:44:08;23.10;;;15.07;;
22571;SDS011;11452;53.368;14.658;2022-10-22T07:49:14;23.80;;;15.67;;
22571;SDS011;11452;53.368;14.658;2022-10-22T07:54:19;24.83;;;14.87;;
22571;SDS011;11452;53.368;14.658;2022-10-22T07:59:24;23.63;;;13.80;;
22571;SDS011;11452;53.368;14.658;2022-10-22T08:04:30;25.33;;;14.63;;
22571;SDS011;11452;53.368;14.658;2022-10-22T08:09:35;22.00;;;13.77;;
22571;SDS011;11452;53.368;14.658;2022-10-22T08:14:41;24.03;;;14.40;;
22571;SDS011;11452;53.368;14.658;2022-10-22T08:19:47;25.10;;;15.23;;
22571;SDS011;11452;53.368;14.658;2022-10-22T08:24:52;27.57;;;15.77;;
22571;SDS011;11452;53.368;14.658;2022-10-22T08:29:58;23.07;;;13.73;;
22571;SDS011;11452;53.368;14.658;2022-10-22T08:35:03;23.67;;;13.37;;
22571;SDS011;11452;53.368;14.658;2022-10-22T08:40:13;22.93;;;14.30;;
22571;SDS011;11452;53.368;14.658;2022-10-22T08:45:29;22.67;;;14.50;;
22571;SDS011;11452;53.368;14.658;2022-10-22T08:50:46;21.00;;;13.03;;
22571;SDS011;11452;53.368;14.658;2022-10-22T08:55:53;20.33;;;13.80;;
22571;SDS011;11452;53.368;14.658;2022-10-22T09:01:02;21.37;;;14.33;;
22571;SDS011;11452;53.368;14.658;2022-10-22T09:06:18;22.07;;;14.63;;
22571;SDS011;11452;53.368;14.658;2022-10-22T09:11:34;21.97;;;13.93;;
22571;SDS011;11452;53.368;14.658;2022-10-22T09:16:38;25.33;;;14.83;;
22571;SDS011;11452;53.368;14.658;2022-10-22T09:27:10;21.17;;;13.97;;
22571;SDS011;11452;53.368;14.658;2022-10-22T09:32:17;20.67;;;14.70;;
22571;SDS011;11452;53.368;14.658;2022-10-22T09:37:24;23.53;;;15.40;;
22571;SDS011;11452;53.368;14.658;2022-10-22T09:42:32;22.17;;;14.98;;
22571;SDS011;11452;53.368;14.658;2022-10-22T09:47:38;16.87;;;11.57;;
22571;SDS011;11452;53.368;14.658;2022-10-22T09:58:10;9.67;;;6.80;;
22571;SDS011;11452;53.368;14.658;2022-10-22T10:03:18;7.70;;;5.87;;
22571;SDS011;11452;53.368;14.658;2022-10-22T10:08:25;6.63;;;5.30;;
22571;SDS011;11452;53.368;14.658;2022-10-22T10:13:40;6.53;;;4.83;;
22571;SDS011;11452;53.368;14.658;2022-10-22T10:29:49;6.53;;;4.90;;
22571;SDS011;11452;53.368;14.658;2022-10-22T11:01:46;6.10;;;4.70;;
22571;SDS011;11452;53.368;14.658;2022-10-22T11:07:04;8.70;;;5.77;;
22571;SDS011;11452;53.368;14.658;2022-10-22T11:12:26;7.70;;;6.23;;
22571;SDS011;11452;53.368;14.658;2022-10-22T11:17:43;9.23;;;6.93;;
22571;SDS011;11452;53.368;14.658;2022-10-22T11:22:50;8.40;;;6.23;;
22571;SDS011;11452;53.368;14.658;2022-10-22T11:28:04;9.60;;;7.20;;
22571;SDS011;11452;53.368;14.658;2022-10-22T11:33:32;9.37;;;7.73;;
22571;SDS011;11452;53.368;14.658;2022-10-22T11:38:46;14.20;;;9.93;;
22571;SDS011;11452;53.368;14.658;2022-10-22T11:49:14;16.83;;;11.53;;
22571;SDS011;11452;53.368;14.658;2022-10-22T12:10:25;17.90;;;11.90;;
22571;SDS011;11452;53.368;14.658;2022-10-22T12:15:33;19.40;;;13.97;;
22571;SDS011;11452;53.368;14.658;2022-10-22T12:20:38;18.33;;;13.30;;
22571;SDS011;11452;53.368;14.658;2022-10-22T12:25:44;20.20;;;14.30;;
22571;SDS011;11452;53.368;14.658;2022-10-22T12:30:51;24.60;;;16.87;;
22571;SDS011;11452;53.368;14.658;2022-10-22T12:35:57;21.43;;;15.43;;
22571;SDS011;11452;53.368;14.658;2022-10-22T12:41:04;24.07;;;17.57;;
22571;SDS011;11452;53.368;14.658;2022-10-22T12:46:10;22.80;;;16.03;;
22571;SDS011;11452;53.368;14.658;2022-10-22T12:51:19;26.25;;;20.17;;
22571;SDS011;11452;53.368;14.658;2022-10-22T12:56:26;24.60;;;17.57;;
22571;SDS011;11452;53.368;14.658;2022-10-22T13:01:35;24.90;;;15.83;;
22571;SDS011;11452;53.368;14.658;2022-10-22T13:06:44;24.67;;;16.53;;
22571;SDS011;11452;53.368;14.658;2022-10-22T13:11:53;24.80;;;16.40;;
22571;SDS011;11452;53.368;14.658;2022-10-22T13:27:35;22.30;;;15.57;;
22571;SDS011;11452;53.368;14.658;2022-10-22T13:32:50;20.50;;;15.30;;
22571;SDS011;11452;53.368;14.658;2022-10-22T13:38:11;20.90;;;15.23;;
22571;SDS011;11452;53.368;14.658;2022-10-22T13:43:12;27.63;;;16.27;;
22571;SDS011;11452;53.368;14.658;2022-10-22T13:48:19;21.03;;;14.13;;
22571;SDS011;11452;53.368;14.658;2022-10-22T13:53:26;22.87;;;15.67;;
22571;SDS011;11452;53.368;14.658;2022-10-22T13:58:33;27.97;;;15.10;;
22571;SDS011;11452;53.368;14.658;2022-10-22T14:03:39;22.23;;;15.33;;
22571;SDS011;11452;53.368;14.658;2022-10-22T14:08:45;19.90;;;14.83;;
22571;SDS011;11452;53.368;14.658;2022-10-22T14:13:57;23.20;;;15.90;;
22571;SDS011;11452;53.368;14.658;2022-10-22T14:19:03;25.30;;;15.90;;
22571;SDS011;11452;53.368;14.658;2022-10-22T14:24:10;23.53;;;14.93;;
22571;SDS011;11452;53.368;14.658;2022-10-22T14:29:16;21.37;;;14.33;;
22571;SDS011;11452;53.368;14.658;2022-10-22T14:34:21;22.47;;;15.47;;
22571;SDS011;11452;53.368;14.658;2022-10-22T14:39:27;23.07;;;15.90;;
22571;SDS011;11452;53.368;14.658;2022-10-22T14:44:32;23.30;;;15.33;;
22571;SDS011;11452;53.368;14.658;2022-10-22T14:49:39;23.30;;;15.73;;
22571;SDS011;11452;53.368;14.658;2022-10-22T14:54:45;22.40;;;15.93;;
22571;SDS011;11452;53.368;14.658;2022-10-22T14:59:53;25.70;;;15.83;;
22571;SDS011;11452;53.368;14.658;2022-10-22T15:04:58;22.80;;;16.40;;
22571;SDS011;11452;53.368;14.658;2022-10-22T15:10:04;25.80;;;15.17;;
22571;SDS011;11452;53.368;14.658;2022-10-22T15:15:11;22.17;;;15.20;;
22571;SDS011;11452;53.368;14.658;2022-10-22T15:20:19;23.00;;;14.20;;
22571;SDS011;11452;53.368;14.658;2022-10-22T15:25:24;20.03;;;14.03;;
22571;SDS011;11452;53.368;14.658;2022-10-22T15:30:31;21.03;;;14.33;;
22571;SDS011;11452;53.368;14.658;2022-10-22T15:35:36;21.33;;;14.27;;
22571;SDS011;11452;53.368;14.658;2022-10-22T15:40:42;20.13;;;13.13;;
22571;SDS011;11452;53.368;14.658;2022-10-22T15:45:47;19.33;;;14.37;;
22571;SDS011;11452;53.368;14.658;2022-10-22T15:50:56;22.10;;;14.07;;
22571;SDS011;11452;53.368;14.658;2022-10-22T15:56:02;19.53;;;13.37;;
22571;SDS011;11452;53.368;14.658;2022-10-22T16:01:11;19.97;;;13.80;;
22571;SDS011;11452;53.368;14.658;2022-10-22T16:06:18;16.70;;;13.07;;
22571;SDS011;11452;53.368;14.658;2022-10-22T16:11:24;21.73;;;14.70;;
22571;SDS011;11452;53.368;14.658;2022-10-22T16:16:31;21.03;;;13.33;;
22571;SDS011;11452;53.368;14.658;2022-10-22T16:21:38;18.30;;;13.63;;
22571;SDS011;11452;53.368;14.658;2022-10-22T16:26:47;18.70;;;13.30;;
22571;SDS011;11452;53.368;14.658;2022-10-22T16:31:55;20.40;;;13.50;;
22571;SDS011;11452;53.368;14.658;2022-10-22T16:37:01;19.67;;;13.70;;
22571;SDS011;11452;53.368;14.658;2022-10-22T16:42:08;16.97;;;13.07;;
22571;SDS011;11452;53.368;14.658;2022-10-22T16:47:14;23.10;;;14.17;;
22571;SDS011;11452;53.368;14.658;2022-10-22T16:52:32;17.40;;;13.37;;
22571;SDS011;11452;53.368;14.658;2022-10-22T16:57:51;20.87;;;13.87;;
22571;SDS011;11452;53.368;14.658;2022-10-22T17:02:59;20.73;;;12.73;;
22571;SDS011;11452;53.368;14.658;2022-10-22T17:08:13;24.63;;;13.90;;
22571;SDS011;11452;53.368;14.658;2022-10-22T17:13:33;19.27;;;13.37;;
22571;SDS011;11452;53.368;14.658;2022-10-22T17:18:47;21.93;;;14.23;;
22571;SDS011;11452;53.368;14.658;2022-10-22T17:23:54;17.60;;;13.53;;
22571;SDS011;11452;53.368;14.658;2022-10-22T17:29:00;19.93;;;13.83;;
22571;SDS011;11452;53.368;14.658;2022-10-22T17:34:07;22.43;;;13.23;;
22571;SDS011;11452;53.368;14.658;2022-10-22T17:39:15;19.67;;;12.73;;
22571;SDS011;11452;53.368;14.658;2022-10-22T17:44:23;19.37;;;12.60;;
22571;SDS011;11452;53.368;14.658;2022-10-22T17:49:31;19.50;;;13.90;;
22571;SDS011;11452;53.368;14.658;2022-10-22T17:54:36;22.53;;;14.10;;
22571;SDS011;11452;53.368;14.658;2022-10-22T17:59:43;19.57;;;13.37;;
22571;SDS011;11452;53.368;14.658;2022-10-22T18:04:49;20.80;;;14.70;;
22571;SDS011;11452;53.368;14.658;2022-10-22T18:09:55;19.33;;;13.10;;
22571;SDS011;11452;53.368;14.658;2022-10-22T18:15:02;19.20;;;13.13;;
22571;SDS011;11452;53.368;14.658;2022-10-22T18:20:08;21.93;;;14.20;;
22571;SDS011;11452;53.368;14.658;2022-10-22T18:25:15;21.70;;;14.83;;
22571;SDS011;11452;53.368;14.658;2022-10-22T18:30:21;25.47;;;15.07;;
22571;SDS011;11452;53.368;14.658;2022-10-22T18:35:30;20.67;;;13.60;;
22571;SDS011;11452;53.368;14.658;2022-10-22T18:40:35;22.13;;;15.07;;
22571;SDS011;11452;53.368;14.658;2022-10-22T18:45:45;21.97;;;15.07;;
22571;SDS011;11452;53.368;14.658;2022-10-22T18:51:01;23.40;;;15.43;;
22571;SDS011;11452;53.368;14.658;2022-10-22T18:56:09;20.33;;;14.53;;
22571;SDS011;11452;53.368;14.658;2022-10-22T19:01:20;22.43;;;14.30;;
22571;SDS011;11452;53.368;14.658;2022-10-22T19:06:28;19.97;;;15.17;;
22571;SDS011;11452;53.368;14.658;2022-10-22T19:11:36;21.77;;;14.67;;
22571;SDS011;11452;53.368;14.658;2022-10-22T19:16:42;19.23;;;14.83;;
22571;SDS011;11452;53.368;14.658;2022-10-22T19:21:48;21.83;;;14.97;;
22571;SDS011;11452;53.368;14.658;2022-10-22T19:26:55;20.87;;;14.70;;
22571;SDS011;11452;53.368;14.658;2022-10-22T19:32:01;20.53;;;15.33;;
22571;SDS011;11452;53.368;14.658;2022-10-22T19:37:10;17.83;;;14.67;;
22571;SDS011;11452;53.368;14.658;2022-10-22T19:42:23;17.30;;;13.97;;
22571;SDS011;11452;53.368;14.658;2022-10-22T19:47:29;18.60;;;13.43;;
22571;SDS011;11452;53.368;14.658;2022-10-22T19:52:35;19.70;;;15.80;;
22571;SDS011;11452;53.368;14.658;2022-10-22T19:57:41;17.07;;;13.83;;
22571;SDS011;11452;53.368;14.658;2022-10-22T20:02:47;21.63;;;14.60;;
22571;SDS011;11452;53.368;14.658;2022-10-22T20:07:52;20.63;;;14.93;;
22571;SDS011;11452;53.368;14.658;2022-10-22T20:12:58;18.77;;;13.67;;
22571;SDS011;11452;53.368;14.658;2022-10-22T20:18:04;17.60;;;13.40;;
22571;SDS011;11452;53.368;14.658;2022-10-22T20:23:09;14.20;;;12.77;;
22571;SDS011;11452;53.368;14.658;2022-10-22T20:28:15;14.03;;;11.90;;
22571;SDS011;11452;53.368;14.658;2022-10-22T20:33:21;15.00;;;11.77;;
22571;SDS011;11452;53.368;14.658;2022-10-22T20:38:26;14.13;;;12.17;;
22571;SDS011;11452;53.368;14.658;2022-10-22T20:43:32;12.70;;;11.30;;
22571;SDS011;11452;53.368;14.658;2022-10-22T20:48:38;15.03;;;11.27;;
22571;SDS011;11452;53.368;14.658;2022-10-22T20:53:44;12.93;;;10.30;;
22571;SDS011;11452;53.368;14.658;2022-10-22T20:58:50;15.13;;;12.23;;
22571;SDS011;11452;53.368;14.658;2022-10-22T21:03:57;19.23;;;11.00;;
22571;SDS011;11452;53.368;14.658;2022-10-22T21:09:04;12.80;;;10.97;;
22571;SDS011;11452;53.368;14.658;2022-10-22T21:14:11;14.07;;;11.17;;
22571;SDS011;11452;53.368;14.658;2022-10-22T21:19:18;13.77;;;10.87;;
22571;SDS011;11452;53.368;14.658;2022-10-22T21:24:25;15.57;;;11.63;;
22571;SDS011;11452;53.368;14.658;2022-10-22T21:29:30;13.70;;;10.50;;
22571;SDS011;11452;53.368;14.658;2022-10-22T21:34:36;13.20;;;10.07;;
22571;SDS011;11452;53.368;14.658;2022-10-22T21:39:41;11.50;;;9.37;;
22571;SDS011;11452;53.368;14.658;2022-10-22T21:44:47;10.33;;;7.80;;
22571;SDS011;11452;53.368;14.658;2022-10-22T21:49:52;13.03;;;8.67;;
22571;SDS011;11452;53.368;14.658;2022-10-22T21:54:58;10.50;;;9.40;;
22571;SDS011;11452;53.368;14.658;2022-10-22T22:00:04;10.83;;;9.07;;
22571;SDS011;11452;53.368;14.658;2022-10-22T22:05:13;9.00;;;7.67;;
22571;SDS011;11452;53.368;14.658;2022-10-22T22:10:19;8.13;;;7.33;;
22571;SDS011;11452;53.368;14.658;2022-10-22T22:15:25;9.93;;;7.90;;
22571;SDS011;11452;53.368;14.658;2022-10-22T22:20:31;11.03;;;8.30;;
22571;SDS011;11452;53.368;14.658;2022-10-22T22:25:36;10.10;;;7.70;;
22571;SDS011;11452;53.368;14.658;2022-10-22T22:30:42;7.60;;;6.80;;
22571;SDS011;11452;53.368;14.658;2022-10-22T22:35:47;9.80;;;7.83;;
22571;SDS011;11452;53.368;14.658;2022-10-22T22:40:53;8.43;;;7.37;;
22571;SDS011;11452;53.368;14.658;2022-10-22T22:46:02;10.00;;;7.67;;
22571;SDS011;11452;53.368;14.658;2022-10-22T22:51:09;11.97;;;7.40;;
22571;SDS011;11452;53.368;14.658;2022-10-22T22:56:19;8.43;;;7.40;;
22571;SDS011;11452;53.368;14.658;2022-10-22T23:01:27;9.77;;;6.90;;
22571;SDS011;11452;53.368;14.658;2022-10-22T23:06:35;6.50;;;5.77;;
22571;SDS011;11452;53.368;14.658;2022-10-22T23:11:41;7.23;;;6.20;;
22571;SDS011;11452;53.368;14.658;2022-10-22T23:16:48;8.53;;;5.73;;
22571;SDS011;11452;53.368;14.658;2022-10-22T23:21:56;8.37;;;5.17;;
22571;SDS011;11452;53.368;14.658;2022-10-22T23:27:02;6.67;;;5.43;;
22571;SDS011;11452;53.368;14.658;2022-10-22T23:32:10;8.87;;;6.27;;
22571;SDS011;11452;53.368;14.658;2022-10-22T23:37:16;6.80;;;6.07;;
22571;SDS011;11452;53.368;14.658;2022-10-22T23:42:22;8.27;;;6.47;;
22571;SDS011;11452;53.368;14.658;2022-10-22T23:47:27;6.47;;;5.77;;
22571;SDS011;11452;53.368;14.658;2022-10-22T23:52:33;8.60;;;5.80;;
22571;SDS011;11452;53.368;14.658;2022-10-22T23:57:38;6.00;;;4.93;;
